createdAt,value
2023-03-29T00:03:52.048Z,-3.30
2023-03-29T00:08:56.582Z,-3.32
2023-03-29T00:13:58.174Z,-3.27
2023-03-29T00:18:59.765Z,-3.22
2023-03-29T00:24:01.526Z,-3.19
2023-03-29T00:29:03.590Z,-3.17
2023-03-29T00:34:05.115Z,-3.20
2023-03-29T00:39:06.993Z,-3.19
2023-03-29T00:44:47.542Z,-3.25
2023-03-29T00:49:50.529Z,-3.35
2023-03-29T00:54:55.205Z,-3.37
2023-03-29T00:59:58.737Z,-3.41
2023-03-29T01:05:10.498Z,-3.39
2023-03-29T01:10:27.214Z,-3.43
2023-03-29T01:15:29.457Z,-3.43
2023-03-29T01:20:38.795Z,-3.45
2023-03-29T01:26:13.043Z,-3.49
2023-03-29T01:31:26.845Z,-3.53
2023-03-29T01:36:38.788Z,-3.54
2023-03-29T01:41:53.968Z,-3.58
2023-03-29T01:47:08.717Z,-3.58
2023-03-29T01:52:19.090Z,-3.60
2023-03-29T01:57:25.180Z,-3.62
2023-03-29T02:02:31.015Z,-3.63
2023-03-29T02:07:37.472Z,-3.60
2023-03-29T02:12:39.449Z,-3.57
2023-03-29T02:17:42.756Z,-3.53
2023-03-29T02:22:57.065Z,-3.48
2023-03-29T02:28:01.830Z,-3.53
2023-03-29T02:33:15.767Z,-3.58
2023-03-29T02:38:17.361Z,-3.62
2023-03-29T02:43:22.634Z,-3.64
2023-03-29T02:48:28.274Z,-3.67
2023-03-29T02:53:41.427Z,-3.67
2023-03-29T02:58:42.927Z,-3.63
2023-03-29T03:03:45.367Z,-3.57
2023-03-29T03:08:47.090Z,-3.53
2023-03-29T03:13:48.592Z,-3.55
2023-03-29T03:18:51.893Z,-3.66
2023-03-29T03:23:54.893Z,-3.80
2023-03-29T03:28:57.801Z,-3.91
2023-03-29T03:33:59.926Z,-3.99
2023-03-29T03:39:03.186Z,-4.08
2023-03-29T03:44:04.879Z,-4.07
2023-03-29T03:49:06.385Z,-4.06
2023-03-29T03:54:08.119Z,-4.04
2023-03-29T03:59:09.629Z,-4.01
2023-03-29T04:04:12.178Z,-4.00
2023-03-29T04:09:13.782Z,-4.02
2023-03-29T04:14:15.292Z,-4.08
2023-03-29T04:19:16.862Z,-4.16
2023-03-29T04:24:18.375Z,-4.21
2023-03-29T04:29:20.058Z,-4.24
2023-03-29T04:34:21.611Z,-4.20
2023-03-29T04:39:23.084Z,-4.18
2023-03-29T04:44:24.582Z,-4.14
2023-03-29T04:49:26.918Z,-4.05
2023-03-29T04:54:28.443Z,-3.85
2023-03-29T04:59:30.865Z,-3.66
2023-03-29T05:04:33.097Z,-3.51
2023-03-29T05:09:35.701Z,-3.44
2023-03-29T05:14:37.302Z,-3.38
2023-03-29T05:19:38.837Z,-3.31
2023-03-29T05:24:40.400Z,-3.24
2023-03-29T05:29:41.898Z,-3.13
2023-03-29T05:34:43.555Z,-2.99
2023-03-29T05:39:45.435Z,-2.81
2023-03-29T05:44:46.927Z,-2.60
2023-03-29T05:49:48.435Z,-2.39
2023-03-29T05:54:50.673Z,-2.18
2023-03-29T05:59:52.181Z,-1.51
2023-03-29T06:04:55.559Z,-1.28
2023-03-29T06:09:57.090Z,-0.94
2023-03-29T06:15:04.134Z,0.47
2023-03-29T06:20:10.853Z,3.55
2023-03-29T06:25:12.563Z,5.31
2023-03-29T06:30:15.703Z,4.40
2023-03-29T06:35:18.056Z,2.84
2023-03-29T06:40:21.392Z,2.01
2023-03-29T06:45:25.314Z,1.25
2023-03-29T06:50:29.408Z,0.82
2023-03-29T06:55:31.780Z,0.70
2023-03-29T07:00:35.884Z,0.72
2023-03-29T07:05:40.859Z,0.98
2023-03-29T07:10:48.018Z,1.28
2023-03-29T07:15:49.545Z,1.23
2023-03-29T07:20:52.485Z,1.22
2023-03-29T07:25:54.457Z,1.17
2023-03-29T07:31:06.929Z,1.37
2023-03-29T07:36:09.078Z,1.72
2023-03-29T07:41:11.051Z,1.73
2023-03-29T07:46:12.624Z,1.69
2023-03-29T07:51:14.484Z,1.76
2023-03-29T07:56:16.420Z,1.83
2023-03-29T08:01:20.097Z,1.91
2023-03-29T08:06:22.598Z,2.03
2023-03-29T08:11:25.185Z,2.20
2023-03-29T08:16:27.185Z,2.39
2023-03-29T08:21:28.951Z,2.62
2023-03-29T08:26:31.146Z,2.79
2023-03-29T08:31:33.727Z,2.88
2023-03-29T08:36:35.267Z,2.99
2023-03-29T08:41:42.656Z,3.40
2023-03-29T08:46:57.484Z,4.39
2023-03-29T08:52:02.571Z,4.18
2023-03-29T08:57:15.569Z,4.08
2023-03-29T09:02:26.425Z,4.59
2023-03-29T09:07:28.176Z,4.63
2023-03-29T09:12:54.916Z,4.60
2023-03-29T09:18:21.270Z,4.72
2023-03-29T09:23:42.016Z,4.92
2023-03-29T09:28:59.993Z,5.24
2023-03-29T09:34:13.651Z,8.05
2023-03-29T09:39:17.009Z,14.53
2023-03-29T09:44:31.238Z,17.67
2023-03-29T09:49:38.551Z,21.35
2023-03-29T09:54:41.168Z,22.98
2023-03-29T09:59:43.814Z,24.52
2023-03-29T10:04:45.426Z,25.91
2023-03-29T10:09:50.960Z,26.96
2023-03-29T10:14:54.417Z,27.32
2023-03-29T10:19:58.410Z,27.09
2023-03-29T10:25:00.029Z,27.03
2023-03-29T10:30:12.325Z,27.42
2023-03-29T10:35:23.930Z,27.94
2023-03-29T10:40:25.366Z,27.88
2023-03-29T10:45:31.338Z,29.55
2023-03-29T10:50:37.533Z,29.64
2023-03-29T10:55:53.420Z,29.49
2023-03-29T11:00:57.155Z,28.71
2023-03-29T11:06:21.996Z,29.68
2023-03-29T11:11:58.377Z,29.87
2023-03-29T11:17:20.826Z,29.75
2023-03-29T11:22:31.712Z,29.65
2023-03-29T11:27:44.925Z,29.01
2023-03-29T11:33:14.284Z,28.67
2023-03-29T11:38:45.316Z,29.24
2023-03-29T11:43:56.912Z,28.25
2023-03-29T11:49:39.660Z,29.87
2023-03-29T11:55:04.001Z,30.04
2023-03-29T12:00:49.948Z,29.49
2023-03-29T12:06:16.915Z,29.49
2023-03-29T12:11:40.702Z,30.71
2023-03-29T12:16:48.815Z,30.49
2023-03-29T12:21:54.551Z,29.80
2023-03-29T12:27:26.183Z,29.56
2023-03-29T12:32:47.101Z,29.17
2023-03-29T12:37:56.811Z,29.00
2023-03-29T12:43:04.402Z,27.85
2023-03-29T12:48:07.797Z,27.72
2023-03-29T12:53:26.827Z,27.99
2023-03-29T12:59:07.733Z,27.29
2023-03-29T13:04:20.719Z,27.94
2023-03-29T13:09:53.270Z,28.18
2023-03-29T13:15:07.605Z,28.02
2023-03-29T13:20:59.644Z,26.74
2023-03-29T13:26:14.831Z,25.82
2023-03-29T13:31:38.845Z,25.80
2023-03-29T13:37:28.355Z,24.69
2023-03-29T13:42:36.401Z,24.43
2023-03-29T13:47:48.911Z,23.72
2023-03-29T13:53:27.979Z,22.57
2023-03-29T13:58:43.245Z,22.99
2023-03-29T14:03:47.539Z,22.85
2023-03-29T14:08:49.958Z,21.67
2023-03-29T14:13:57.125Z,20.69
2023-03-29T14:19:02.862Z,20.33
2023-03-29T14:24:04.445Z,20.14
2023-03-29T14:29:10.050Z,20.15
2023-03-29T14:34:15.021Z,20.89
2023-03-29T14:39:19.531Z,21.17
2023-03-29T14:44:24.162Z,21.50
2023-03-29T14:49:26.429Z,21.04
2023-03-29T14:54:34.317Z,20.83
2023-03-29T14:59:38.347Z,19.93
2023-03-29T15:04:39.854Z,19.46
2023-03-29T15:09:41.495Z,19.51
2023-03-29T15:14:43.316Z,18.84
2023-03-29T15:19:44.817Z,18.24
2023-03-29T15:24:48.910Z,16.94
2023-03-29T15:30:01.383Z,15.82
2023-03-29T15:35:06.344Z,14.51
2023-03-29T15:40:16.434Z,13.29
2023-03-29T15:45:21.372Z,12.67
2023-03-29T15:50:23.443Z,12.24
2023-03-29T15:55:26.464Z,11.96
2023-03-29T16:00:28.751Z,12.04
2023-03-29T16:05:30.592Z,12.76
2023-03-29T16:10:32.153Z,12.96
2023-03-29T16:15:36.796Z,12.96
2023-03-29T16:20:38.428Z,12.94
2023-03-29T16:25:40.769Z,12.56
2023-03-29T16:30:43.469Z,11.78
2023-03-29T16:35:45.209Z,10.95
2023-03-29T16:40:47.590Z,10.25
2023-03-29T16:45:49.136Z,9.75
2023-03-29T16:50:50.944Z,9.25
2023-03-29T16:55:52.586Z,8.65
2023-03-29T17:00:54.523Z,8.05
2023-03-29T17:05:58.041Z,7.58
2023-03-29T17:11:00.033Z,7.16
2023-03-29T17:16:01.978Z,6.87
2023-03-29T17:21:04.494Z,6.61
2023-03-29T17:26:07.081Z,6.36
2023-03-29T17:31:08.836Z,6.20
2023-03-29T17:36:11.155Z,6.06
2023-03-29T17:41:12.856Z,5.85
2023-03-29T17:46:16.666Z,5.55
2023-03-29T17:51:20.124Z,5.38
2023-03-29T17:56:23.033Z,5.28
2023-03-29T18:01:25.425Z,5.19
2023-03-29T18:06:29.188Z,5.00
2023-03-29T18:11:31.190Z,4.80
2023-03-29T18:16:33.928Z,4.63
2023-03-29T18:21:37.190Z,4.54
2023-03-29T18:26:39.580Z,4.53
2023-03-29T18:31:41.323Z,4.51
2023-03-29T18:36:43.334Z,4.43
2023-03-29T18:41:45.230Z,4.26
2023-03-29T18:46:49.830Z,4.10
2023-03-29T18:51:51.672Z,4.01
2023-03-29T18:56:53.415Z,4.00
2023-03-29T19:01:57.746Z,4.03
2023-03-29T19:07:01.733Z,4.10
2023-03-29T19:12:03.907Z,4.18
2023-03-29T19:17:05.415Z,4.30
2023-03-29T19:22:07.053Z,4.39
2023-03-29T19:27:11.345Z,4.44
2023-03-29T19:32:14.216Z,4.50
2023-03-29T19:37:17.672Z,4.55
2023-03-29T19:42:19.190Z,4.55
2023-03-29T19:47:21.241Z,4.57
2023-03-29T19:52:24.506Z,4.58
2023-03-29T19:57:26.278Z,4.59
2023-03-29T20:02:27.807Z,4.58
2023-03-29T20:07:29.761Z,4.55
2023-03-29T20:12:32.056Z,4.54
2023-03-29T20:17:35.547Z,4.48
2023-03-29T20:22:42.109Z,4.45
2023-03-29T20:27:45.416Z,4.41
2023-03-29T20:32:47.177Z,4.38
2023-03-29T20:37:48.893Z,4.33
2023-03-29T20:42:50.946Z,4.25
2023-03-29T20:48:01.972Z,4.15
2023-03-29T20:53:06.280Z,4.07
2023-03-29T20:58:07.882Z,4.01
2023-03-29T21:03:09.924Z,3.93
2023-03-29T21:08:11.689Z,3.86
2023-03-29T21:13:13.265Z,3.70
2023-03-29T21:18:15.762Z,3.54
2023-03-29T21:23:17.340Z,3.29
2023-03-29T21:28:18.936Z,3.09
2023-03-29T21:33:21.081Z,2.90
2023-03-29T21:38:23.030Z,2.69
2023-03-29T21:43:24.577Z,2.57
2023-03-29T21:48:26.489Z,2.59
2023-03-29T21:53:28.291Z,2.69
2023-03-29T21:58:29.846Z,2.81
2023-03-29T22:03:31.393Z,2.93
2023-03-29T22:08:33.036Z,3.01
2023-03-29T22:13:36.401Z,3.08
2023-03-29T22:18:44.198Z,3.11
2023-03-29T22:23:48.469Z,3.13
2023-03-29T22:28:51.787Z,3.19
2023-03-29T22:33:54.065Z,3.24
2023-03-29T22:38:56.298Z,3.28
2023-03-29T22:44:01.090Z,3.27
2023-03-29T22:49:03.181Z,3.27
2023-03-29T22:54:04.809Z,3.33
2023-03-29T22:59:06.500Z,3.40
2023-03-29T23:04:08.567Z,3.43
2023-03-29T23:09:10.626Z,3.46
2023-03-29T23:14:12.125Z,3.50
2023-03-29T23:19:13.653Z,3.54
2023-03-29T23:24:18.987Z,3.60
2023-03-29T23:29:21.065Z,3.65
2023-03-29T23:34:23.075Z,3.69
2023-03-29T23:39:25.151Z,3.73
2023-03-29T23:44:26.709Z,3.73
2023-03-29T23:49:28.521Z,3.72
2023-03-29T23:54:30.517Z,3.77
2023-03-29T23:59:37.717Z,3.82
